Knoxville, Tennessee
Current Conditions -  °F | °C
As of 6:53 AM on Friday 24 Oct 2014 (Local Time) from KTYS Reporting Station
Scattered Clouds Scattered Clouds  
Wind Chill: 42°   Ceiling: Unl
Heat Index: 46°   Visibility: 10mi
Dew Point: 42°   Wind: 8mph
Humidity: 86%   Direction: 20°NNE
Pressure: 30.11"   Gusts: NA
Location:  35.96°N, 83.92°W
Report Text: KTYS 241053Z 02007KT 10SM SCT250 08/06 A3011 RMK AO2 SLP194 T00780056
Loading
Personal Weather Stations






























Interactive Weather Map New forecast layout! Learn more

10-Day Weather Forecast

Advertisements
Track Severe Weather on mobile